METAR Data
IDs: Format: Raw Decoded Include TAF

Data at: 1210 UTC 16 Oct 2018

PASX 161156Z AUTO 05004KT 9SM -RA OVC050 06/06 A2928 RMK AO2 SLP926 P0009 60067 70088 T00610056 10061 20056 53002
PASX 161128Z AUTO 23006KT 10SM -RA FEW009 OVC055 06/06 A2926 RMK AO2 P0006
PASX 161115Z AUTO 25003KT 10SM RA BKN009 BKN024 OVC055 06/06 A2927 RMK AO2 P0005
PASX 161056Z AUTO 23003KT 9SM RA OVC011 06/06 A2928 RMK AO2 SLP924 P0016 T00610056
PASX 161035Z AUTO 27003KT 10SM RA BKN011 OVC037 06/06 A2928 RMK AO2 P0007
PASX 161019Z AUTO 23003KT 10SM RA SCT011 BKN037 OVC050 06/06 A2928 RMK AO2 P0004
PASX 160956Z AUTO 00000KT 10SM RA FEW008 BKN018 OVC046 06/06 A2926 RMK AO2 SLP919 P0014 T00610056
PASX 160942Z AUTO 24005KT 10SM RA SCT006 BKN018 OVC046 06/06 A2927 RMK AO2 P0010
PASX 160914Z AUTO 17005KT 9SM RA BKN006 BKN018 OVC070 06/06 A2929 RMK AO2 P0002
PASX 160856Z AUTO 00000KT 10SM -RA SCT006 BKN016 BKN075 06/06 A2928 RMK AO2 SLP924 P0003 60028 T00610056 400720017 58003
PASX 160756Z AUTO 10003KT 6SM RA BR BKN018 BKN024 OVC031 06/06 A2928 RMK AO2 SLP925 P0013 T00610056
PASX 160749Z AUTO 00000KT 5SM RA BR FEW007 BKN018 OVC032 06/06 A2929 RMK AO2 P0012
PASX 160656Z AUTO 00000KT 6SM RA BR OVC007 06/06 A2928 RMK AO2 SLP926 P0012 T00610056
PASX 160556Z AUTO 05005KT 8SM RA OVC007 06/06 A2930 RMK AO2 SLP930 P0007 60017 T00610056 10061 20056 56010
PASX 160456Z AUTO 06006KT 10SM -RA OVC007 06/06 A2930 RMK AO2 SLP931 P0004 T00610056
PASX 160356Z AUTO 06006KT 10SM -RA BKN009 OVC045 06/05 A2931 RMK AO2 SLP933 P0003 T00610050
PASX 160348Z AUTO 05007KT 10SM -RA BKN009 OVC045 06/05 A2930 RMK AO2 P0003
PASX 160256Z AUTO 05006KT 10SM -RA FEW010 BKN050 OVC085 06/04 A2933 RMK AO2 SLP940 P0003 60003 T00560044 56024
PASX 160156Z AUTO 05007KT 10SM -RA SCT011 SCT050 OVC065 06/04 A2935 RMK AO2 RAB23 SLP947 P0000 T00560039
PASX 160056Z AUTO 05007KT 10SM OVC090 06/03 A2936 RMK AO2 RAE18 SLP951 P0000 T00560033
PASX 152356Z AUTO 06009G15KT 10SM -RA BKN037 OVC048 06/03 A2940 RMK AO2 SLP964 P0002 60004 T00560033 10072 20050 56029
PASX 152256Z AUTO 06009KT 10SM -RA SCT034 SCT041 BKN080 06/03 A2942 RMK AO2 SLP971 P0001 T00560033
PASX 152156Z AUTO 04007KT 10SM -RA SCT038 BKN049 06/03 A2945 RMK AO2 SLP983 P0001 T00610033
PASX 152056Z AUTO 00000KT 10SM -RA SCT065 07/04 A2948 RMK AO2 SLP993 P0000 60000 T00670044 56034
PASX 151956Z AUTO 00000KT 10SM -RA BKN070 BKN090 06/03 A2952 RMK AO2 RAB40 SLP005 P0000 T00610028
PASX 151856Z AUTO VRB04KT 10SM BKN110 06/02 A2953 RMK AO2 SLP010 T00610017
PASX 151756Z AUTO 06006KT 10SM BKN100 05/01 A2958 RMK AO2 SLP027 T00500011 10050 20022 56014
PASX 151656Z AUTO 05006KT 10SM FEW120 05/01 A2959 RMK AO2 SLP028 T00500011
PASX 151556Z AUTO 10006KT 10SM CLR 03/02 A2962 RMK AO2 SLP039 T00330017
PASX 151456Z AUTO 06004KT 10SM CLR 02/02 A2962 RMK AO2 SLP041 T00220017 58020 FZRANO
PASX 151356Z AUTO 09003KT 10SM CLR 02/01 A2967 RMK AO2 SLP056 T00220011 FZRANO
PASX 151256Z AUTO 08006KT 10SM CLR 04/02 A2968 RMK AO2 SLP059 T00390022
PASX 151156Z AUTO 02004KT 10SM CLR 02/02 A2968 RMK AO2 SLP061 T00220017 10061 20017 56016 FZRANO
PASX 151056Z AUTO 06003KT 10SM CLR 04/03 A2971 RMK AO2 SLP069 T00440028
PASX 150956Z AUTO 07005KT 10SM CLR 04/03 A2970 RMK AO2 SLP066 T00390028
PASX 150856Z AUTO 00000KT 10SM CLR 03/03 A2973 RMK AO2 SLP077 T00330028 400831006 56005
PASX 150756Z AUTO 07004KT 10SM FEW100 04/03 A2973 RMK AO2 SLP077 T00440033
PASX 150656Z AUTO 06003KT 10SM CLR 05/04 A2974 RMK AO2 SLP081 T00500039
PASX 150556Z AUTO 03005KT 10SM CLR 06/04 A2975 RMK AO2 SLP083 60000 T00610044 10083 20061 57004
PASX 150456Z AUTO 06004KT 10SM CLR 06/04 A2975 RMK AO2 SLP084 T00610044
PASX 150356Z AUTO 03006KT 10SM FEW075 07/04 A2975 RMK AO2 RAE04 SLP086 P0000 T00670044
PASX 150256Z AUTO 33005KT 10SM -RA FEW042 07/04 A2976 RMK AO2 RAB28 PRESFR SLP087 P0000 60000 T00670044 58013
PASX 150056Z AUTO 04005KT 10SM CLR 08/05 A2978 RMK AO2 SLP093 T00830050